Time;durP1;ratioP1;P1;durP2;ratioP2;P2;SDS_P1;SDS_P2;PMS_P1;PMS_P2;Temp;Humidity;BMP_temperature;BMP_pressure;BME280_temperature;BME280_humidity;BME280_pressure;Samples;Min_cycle;Max_cycle;Signal;HPM_P1;HPM_P2
2023/10/31 00:01:12;;;;;;;5.50;1.42;;;;;;;;;;4962561;28;93065;-61
2023/10/31 00:03:40;;;;;;;7.35;1.15;;;;;;;;;;4963091;28;93362;-61
2023/10/31 00:06:06;;;;;;;3.28;1.10;;;;;;;;;;4959831;28;92491;-61
2023/10/31 00:08:33;;;;;;;4.10;1.20;;;;;;;;;;4963602;28;94918;-61
2023/10/31 00:10:59;;;;;;;9.63;1.50;;;;;;;;;;4957683;28;93601;-61
2023/10/31 00:13:25;;;;;;;2.80;1.30;;;;;;;;;;4961159;28;92561;-61
2023/10/31 00:15:52;;;;;;;7.07;1.30;;;;;;;;;;4963493;28;93145;-61
2023/10/31 00:18:18;;;;;;;6.53;1.15;;;;;;;;;;4960621;28;94415;-62
2023/10/31 00:20:45;;;;;;;4.68;1.40;;;;;;;;;;4959631;28;92514;-61
2023/10/31 00:23:12;;;;;;;7.88;1.60;;;;;;;;;;4956107;28;93914;-62
2023/10/31 00:25:38;;;;;;;5.75;1.90;;;;;;;;;;4956110;28;92410;-60
2023/10/31 00:28:05;;;;;;;5.97;2.30;;;;;;;;;;4959514;28;92881;-61
2023/10/31 00:30:31;;;;;;;7.05;2.10;;;;;;;;;;4962181;28;93415;-60
2023/10/31 00:32:57;;;;;;;8.98;2.20;;;;;;;;;;4950857;28;94851;-61
2023/10/31 00:35:24;;;;;;;9.02;2.90;;;;;;;;;;4959657;28;96525;-61
2023/10/31 00:37:50;;;;;;;8.30;3.40;;;;;;;;;;4953963;28;93854;-60
2023/10/31 00:40:17;;;;;;;7.80;3.33;;;;;;;;;;4956949;28;92539;-61
2023/10/31 00:42:43;;;;;;;8.10;4.10;;;;;;;;;;4960198;28;92574;-61
2023/10/31 00:45:10;;;;;;;12.32;4.47;;;;;;;;;;4956664;28;92949;-60
2023/10/31 00:47:36;;;;;;;11.80;4.70;;;;;;;;;;4949711;28;94291;-61
2023/10/31 00:50:03;;;;;;;10.85;4.63;;;;;;;;;;4960576;28;92702;-61
2023/10/31 00:52:29;;;;;;;11.10;4.57;;;;;;;;;;4955930;28;92476;-61
2023/10/31 00:54:56;;;;;;;14.52;5.85;;;;;;;;;;4957179;28;94439;-61
2023/10/31 00:57:22;;;;;;;11.23;5.68;;;;;;;;;;4955342;28;95791;-61
2023/10/31 00:59:49;;;;;;;10.23;5.90;;;;;;;;;;4953209;28;92598;-64
2023/10/31 01:02:15;;;;;;;15.73;6.38;;;;;;;;;;4960008;28;93165;-64
2023/10/31 01:04:42;;;;;;;15.00;7.35;;;;;;;;;;4956022;28;92582;-64
2023/10/31 01:07:11;;;;;;;21.73;9.20;;;;;;;;;;4949353;28;94393;-64
2023/10/31 01:09:38;;;;;;;16.42;8.38;;;;;;;;;;4957817;28;94127;-64
2023/10/31 01:12:05;;;;;;;16.65;8.48;;;;;;;;;;4960839;28;92485;-63
2023/10/31 01:14:31;;;;;;;21.67;9.48;;;;;;;;;;4959136;28;93121;-63
2023/10/31 01:16:57;;;;;;;20.50;8.77;;;;;;;;;;4957476;28;92483;-64
2023/10/31 01:19:24;;;;;;;13.25;7.80;;;;;;;;;;4954021;28;92807;-63
2023/10/31 01:21:50;;;;;;;16.92;7.93;;;;;;;;;;4955220;28;94944;-63
2023/10/31 01:24:16;;;;;;;17.58;8.63;;;;;;;;;;4964129;28;93408;-62
2023/10/31 01:26:43;;;;;;;11.98;6.68;;;;;;;;;;4961277;28;94212;-63
2023/10/31 01:29:09;;;;;;;16.08;7.15;;;;;;;;;;4965777;28;92610;-63
2023/10/31 01:31:36;;;;;;;14.93;6.13;;;;;;;;;;4962969;28;92754;-62
2023/10/31 01:34:21;;;;;;;11.35;6.05;;;;;;;;;;4963307;28;93322;-64
2023/10/31 01:36:47;;;;;;;15.27;5.43;;;;;;;;;;4962692;28;93291;-64
2023/10/31 01:39:13;;;;;;;9.35;5.13;;;;;;;;;;4959109;28;91999;-64
2023/10/31 01:41:43;;;;;;;9.90;5.20;;;;;;;;;;4954024;28;92398;-62
2023/10/31 01:44:10;;;;;;;12.95;6.13;;;;;;;;;;4958400;28;93983;-63
2023/10/31 01:46:36;;;;;;;12.15;5.63;;;;;;;;;;4964922;28;95085;-62
2023/10/31 01:49:03;;;;;;;12.07;6.18;;;;;;;;;;4955956;28;93386;-62
2023/10/31 01:51:29;;;;;;;21.63;7.47;;;;;;;;;;4959329;28;92540;-63
2023/10/31 01:53:56;;;;;;;16.42;7.32;;;;;;;;;;4962216;28;93994;-63
2023/10/31 01:56:22;;;;;;;21.65;7.95;;;;;;;;;;4959814;28;92717;-63
2023/10/31 01:58:49;;;;;;;21.42;9.13;;;;;;;;;;4952512;28;92586;-63
2023/10/31 02:01:16;;;;;;;23.52;9.63;;;;;;;;;;4956582;28;93106;-63
2023/10/31 02:03:42;;;;;;;20.10;10.82;;;;;;;;;;4959546;28;92684;-63
2023/10/31 02:06:09;;;;;;;24.35;11.15;;;;;;;;;;4959824;28;92903;-64
2023/10/31 02:08:35;;;;;;;24.00;11.63;;;;;;;;;;4964158;28;94189;-64
2023/10/31 02:11:03;;;;;;;25.80;11.57;;;;;;;;;;4954449;28;95578;-64
2023/10/31 02:13:30;;;;;;;24.52;11.32;;;;;;;;;;4960729;28;95772;-63
2023/10/31 02:15:56;;;;;;;19.75;11.80;;;;;;;;;;4955014;28;93555;-60
2023/10/31 02:18:22;;;;;;;25.17;11.10;;;;;;;;;;4956289;28;93135;-63
2023/10/31 02:20:49;;;;;;;24.20;11.25;;;;;;;;;;4951367;28;93149;-62
2023/10/31 02:23:16;;;;;;;15.95;9.68;;;;;;;;;;4961049;28;93410;-64
2023/10/31 02:25:42;;;;;;;16.52;9.93;;;;;;;;;;4961576;28;92537;-63
2023/10/31 02:28:09;;;;;;;17.52;8.25;;;;;;;;;;4962727;28;93202;-63
2023/10/31 02:30:35;;;;;;;20.30;8.52;;;;;;;;;;4956371;28;93330;-62
2023/10/31 02:33:02;;;;;;;12.13;7.50;;;;;;;;;;4963617;28;93083;-61
2023/10/31 02:35:28;;;;;;;13.63;8.02;;;;;;;;;;4955889;28;95760;-64
2023/10/31 02:37:55;;;;;;;17.85;8.25;;;;;;;;;;4952404;28;92562;-63
2023/10/31 02:40:21;;;;;;;16.52;8.48;;;;;;;;;;4955762;28;93278;-63
2023/10/31 02:42:48;;;;;;;19.65;9.32;;;;;;;;;;4960183;28;93504;-63
2023/10/31 02:45:14;;;;;;;17.42;8.85;;;;;;;;;;4956551;28;92528;-63
2023/10/31 02:47:40;;;;;;;19.00;9.52;;;;;;;;;;4956554;28;94095;-62
2023/10/31 02:50:07;;;;;;;14.02;6.90;;;;;;;;;;4964525;28;94103;-62
2023/10/31 02:52:33;;;;;;;17.02;7.88;;;;;;;;;;4955726;28;92068;-62
2023/10/31 02:55:00;;;;;;;11.02;6.93;;;;;;;;;;4967064;28;93459;-63
2023/10/31 02:57:26;;;;;;;13.82;6.93;;;;;;;;;;4957482;28;92726;-62
2023/10/31 02:59:53;;;;;;;17.02;6.30;;;;;;;;;;4954451;28;94881;-62
2023/10/31 03:02:19;;;;;;;11.80;5.57;;;;;;;;;;4962281;28;94466;-64
2023/10/31 03:04:45;;;;;;;11.32;5.25;;;;;;;;;;4957232;28;94066;-63
2023/10/31 03:07:12;;;;;;;13.45;5.28;;;;;;;;;;4959895;28;94430;-63
2023/10/31 03:09:38;;;;;;;10.13;5.18;;;;;;;;;;4958797;28;94156;-62
2023/10/31 03:12:05;;;;;;;9.02;5.05;;;;;;;;;;4959788;28;92521;-62
2023/10/31 03:14:31;;;;;;;16.58;5.80;;;;;;;;;;4961812;28;94375;-63
2023/10/31 03:16:57;;;;;;;8.93;5.78;;;;;;;;;;4957124;28;92062;-63
2023/10/31 03:19:24;;;;;;;11.48;5.72;;;;;;;;;;4958392;28;94203;-63
2023/10/31 03:21:50;;;;;;;19.98;6.40;;;;;;;;;;4958633;28;93388;-62
2023/10/31 03:24:16;;;;;;;12.13;5.90;;;;;;;;;;4957558;28;94949;-63
2023/10/31 03:26:43;;;;;;;14.45;6.22;;;;;;;;;;4957710;28;96737;-63
2023/10/31 03:29:10;;;;;;;12.48;6.07;;;;;;;;;;4962333;28;94819;-60
2023/10/31 03:31:36;;;;;;;12.60;5.88;;;;;;;;;;4959743;28;93340;-64
2023/10/31 03:34:03;;;;;;;15.93;4.85;;;;;;;;;;4961314;28;93314;-64
2023/10/31 03:36:30;;;;;;;14.18;5.80;;;;;;;;;;4959857;28;92516;-64
2023/10/31 03:38:56;;;;;;;12.25;4.50;;;;;;;;;;4956041;28;92551;-62
2023/10/31 03:41:23;;;;;;;10.70;4.25;;;;;;;;;;4958896;28;93158;-63
2023/10/31 03:43:49;;;;;;;6.63;3.67;;;;;;;;;;4956970;28;92950;-62
2023/10/31 03:46:16;;;;;;;8.05;3.53;;;;;;;;;;4964821;28;94215;-64
2023/10/31 03:48:42;;;;;;;6.50;2.95;;;;;;;;;;4954012;28;95836;-63
2023/10/31 03:51:08;;;;;;;9.52;3.08;;;;;;;;;;4960221;28;92454;-62
2023/10/31 03:53:35;;;;;;;6.72;2.60;;;;;;;;;;4952317;28;93131;-63
2023/10/31 03:56:01;;;;;;;9.40;3.13;;;;;;;;;;4960067;28;93470;-64
2023/10/31 03:58:28;;;;;;;7.57;3.00;;;;;;;;;;4960718;28;94125;-64
2023/10/31 04:00:55;;;;;;;9.50;3.22;;;;;;;;;;4962191;28;93437;-65
2023/10/31 04:03:21;;;;;;;6.63;2.38;;;;;;;;;;4957043;28;92514;-64
2023/10/31 04:05:47;;;;;;;9.15;2.50;;;;;;;;;;4963434;28;93173;-64
2023/10/31 04:08:14;;;;;;;5.70;1.92;;;;;;;;;;4959349;28;93414;-65
2023/10/31 04:10:40;;;;;;;4.65;1.70;;;;;;;;;;4961023;28;93412;-64
2023/10/31 04:13:07;;;;;;;3.75;1.40;;;;;;;;;;4952667;28;94800;-63
2023/10/31 04:15:34;;;;;;;5.75;1.70;;;;;;;;;;4963800;28;93396;-65
2023/10/31 04:18:01;;;;;;;3.45;1.67;;;;;;;;;;4959727;28;96013;-64
2023/10/31 04:20:27;;;;;;;8.32;1.50;;;;;;;;;;4952594;28;93392;-63
2023/10/31 04:22:54;;;;;;;4.57;1.63;;;;;;;;;;4957116;28;92561;-64
2023/10/31 04:25:20;;;;;;;4.18;1.60;;;;;;;;;;4956123;28;93107;-63
2023/10/31 04:27:46;;;;;;;3.60;1.75;;;;;;;;;;4958717;28;94489;-64
2023/10/31 04:30:13;;;;;;;4.40;2.22;;;;;;;;;;4957034;28;91782;-61
2023/10/31 04:32:40;;;;;;;5.97;1.98;;;;;;;;;;4956544;28;92529;-61
2023/10/31 04:35:07;;;;;;;8.32;2.28;;;;;;;;;;4957065;28;93463;-61
2023/10/31 04:37:33;;;;;;;12.82;2.08;;;;;;;;;;4958768;28;95353;-61
2023/10/31 04:40:00;;;;;;;5.05;2.03;;;;;;;;;;4958864;28;95514;-61
2023/10/31 04:42:27;;;;;;;8.90;2.60;;;;;;;;;;4956604;28;92995;-62
2023/10/31 04:44:53;;;;;;;10.52;2.20;;;;;;;;;;4956874;28;93092;-61
2023/10/31 04:47:19;;;;;;;2.80;2.03;;;;;;;;;;4957173;28;93440;-61
2023/10/31 04:49:46;;;;;;;4.40;1.88;;;;;;;;;;4951107;28;93009;-60
2023/10/31 04:52:13;;;;;;;8.25;2.85;;;;;;;;;;4958601;28;92538;-60
2023/10/31 04:54:39;;;;;;;6.65;2.53;;;;;;;;;;4952964;28;92654;-60
2023/10/31 04:57:06;;;;;;;4.05;2.28;;;;;;;;;;4952195;28;93340;-60
2023/10/31 04:59:32;;;;;;;2.80;2.05;;;;;;;;;;4965208;28;92996;-60
2023/10/31 05:01:58;;;;;;;8.45;3.28;;;;;;;;;;4961429;28;95252;-61
2023/10/31 05:04:25;;;;;;;4.03;1.95;;;;;;;;;;4965095;28;96521;-61
2023/10/31 05:06:51;;;;;;;6.65;1.52;;;;;;;;;;4959761;28;92636;-61
2023/10/31 05:09:19;;;;;;;2.05;1.65;;;;;;;;;;4971214;28;95113;-61
2023/10/31 05:11:46;;;;;;;2.38;1.65;;;;;;;;;;4964453;28;94101;-62
2023/10/31 05:14:13;;;;;;;1.95;1.10;;;;;;;;;;4963474;28;94362;-61
2023/10/31 05:16:42;;;;;;;6.88;1.50;;;;;;;;;;4963501;28;92594;-61
2023/10/31 05:19:09;;;;;;;8.32;2.65;;;;;;;;;;4955097;28;93152;-60
2023/10/31 05:21:36;;;;;;;7.10;3.20;;;;;;;;;;4968180;28;94397;-60
2023/10/31 05:24:02;;;;;;;6.93;2.78;;;;;;;;;;4962205;28;94105;-61
2023/10/31 05:26:29;;;;;;;4.88;3.67;;;;;;;;;;4956744;28;95838;-61
2023/10/31 05:28:59;;;;;;;8.82;2.42;;;;;;;;;;4964119;28;93926;-61
2023/10/31 05:31:26;;;;;;;3.53;1.90;;;;;;;;;;4961089;28;93103;-61
2023/10/31 05:33:52;;;;;;;2.85;2.03;;;;;;;;;;4959450;28;94397;-61
2023/10/31 05:36:22;;;;;;;2.33;1.85;;;;;;;;;;4966978;28;92387;-60
2023/10/31 05:38:49;;;;;;;4.22;2.85;;;;;;;;;;4963967;28;92551;-60
2023/10/31 05:41:15;;;;;;;4.72;2.28;;;;;;;;;;4955128;28;93426;-61
2023/10/31 05:43:42;;;;;;;5.63;2.20;;;;;;;;;;4969391;28;91719;-60
2023/10/31 05:46:10;;;;;;;5.55;2.95;;;;;;;;;;4961895;28;93559;-61
2023/10/31 05:48:38;;;;;;;4.88;2.78;;;;;;;;;;4964230;28;92973;-59
2023/10/31 05:51:04;;;;;;;6.72;3.78;;;;;;;;;;4963569;28;94936;-61
2023/10/31 05:53:33;;;;;;;7.82;4.38;;;;;;;;;;4959910;28;93373;-61
2023/10/31 05:56:00;;;;;;;8.93;3.97;;;;;;;;;;4958726;28;93278;-61
2023/10/31 05:58:26;;;;;;;8.40;4.15;;;;;;;;;;4966154;28;94153;-61
2023/10/31 06:00:53;;;;;;;7.90;4.10;;;;;;;;;;4965520;28;93483;-61
2023/10/31 06:03:19;;;;;;;8.98;4.70;;;;;;;;;;4957518;28;92495;-67
2023/10/31 06:05:45;;;;;;;5.97;4.20;;;;;;;;;;4960176;28;95720;-61
2023/10/31 06:08:12;;;;;;;5.30;4.10;;;;;;;;;;4961332;28;91727;-62
2023/10/31 06:10:38;;;;;;;10.40;4.80;;;;;;;;;;4960840;28;92400;-61
2023/10/31 06:13:05;;;;;;;11.25;4.55;;;;;;;;;;4961866;28;93295;-61
2023/10/31 06:15:31;;;;;;;10.48;4.25;;;;;;;;;;4962281;28;94895;-61
2023/10/31 06:17:57;;;;;;;8.18;4.45;;;;;;;;;;4960663;28;95386;-61
2023/10/31 06:20:24;;;;;;;5.97;3.13;;;;;;;;;;4965246;28;95448;-61
2023/10/31 06:22:50;;;;;;;5.03;3.72;;;;;;;;;;4958797;28;92617;-61
2023/10/31 06:25:16;;;;;;;6.50;2.80;;;;;;;;;;4959873;28;92959;-60
2023/10/31 06:27:43;;;;;;;5.97;2.55;;;;;;;;;;4960786;28;93408;-59
2023/10/31 06:30:09;;;;;;;2.42;2.22;;;;;;;;;;4960752;28;94257;-61
2023/10/31 06:32:53;;;;;;;7.53;2.75;;;;;;;;;;4956749;28;92592;-61
2023/10/31 06:35:19;;;;;;;3.60;1.98;;;;;;;;;;4962510;28;92441;-60
2023/10/31 06:37:46;;;;;;;3.80;1.98;;;;;;;;;;4958982;28;93127;-61
2023/10/31 06:40:12;;;;;;;4.97;2.10;;;;;;;;;;4950806;28;97280;-61
2023/10/31 06:42:38;;;;;;;10.70;3.50;;;;;;;;;;4959524;28;92609;-59
2023/10/31 06:45:05;;;;;;;3.97;2.75;;;;;;;;;;4963454;28;93166;-61
2023/10/31 06:47:32;;;;;;;3.75;2.33;;;;;;;;;;4959897;28;94210;-61
2023/10/31 06:49:58;;;;;;;6.30;2.50;;;;;;;;;;4962757;28;92797;-61
2023/10/31 06:52:25;;;;;;;5.20;2.03;;;;;;;;;;4959943;28;93410;-63
2023/10/31 06:54:51;;;;;;;2.72;1.77;;;;;;;;;;4959795;28;92699;-63
2023/10/31 06:57:18;;;;;;;3.80;1.73;;;;;;;;;;4962436;28;93137;-62
2023/10/31 06:59:44;;;;;;;3.90;1.63;;;;;;;;;;4948146;28;94432;-62
2023/10/31 07:02:10;;;;;;;3.00;1.75;;;;;;;;;;4949083;28;93433;-63
2023/10/31 07:04:37;;;;;;;3.80;2.03;;;;;;;;;;4953761;28;96776;-63
2023/10/31 07:07:03;;;;;;;5.82;1.88;;;;;;;;;;4957303;28;94693;-62
2023/10/31 07:09:30;;;;;;;2.58;1.63;;;;;;;;;;4964949;28;92438;-63
2023/10/31 07:11:56;;;;;;;3.83;1.77;;;;;;;;;;4948855;28;94349;-62
2023/10/31 07:14:22;;;;;;;2.42;1.88;;;;;;;;;;4962876;28;92556;-63
2023/10/31 07:16:49;;;;;;;4.53;2.17;;;;;;;;;;4960047;28;93039;-63
2023/10/31 07:19:15;;;;;;;2.88;1.50;;;;;;;;;;4953170;28;93390;-63
2023/10/31 07:21:42;;;;;;;11.13;2.47;;;;;;;;;;4953564;28;92066;-63
2023/10/31 07:24:08;;;;;;;4.88;2.20;;;;;;;;;;4958758;28;92577;-62
2023/10/31 07:26:35;;;;;;;3.97;2.10;;;;;;;;;;4955636;28;92481;-63
2023/10/31 07:29:02;;;;;;;4.25;2.05;;;;;;;;;;4959102;28;94851;-64
2023/10/31 07:31:28;;;;;;;3.08;1.92;;;;;;;;;;4963834;28;95488;-63
2023/10/31 07:33:56;;;;;;;10.82;2.60;;;;;;;;;;4955090;28;92915;-63
2023/10/31 07:36:22;;;;;;;4.47;2.90;;;;;;;;;;4955337;28;93454;-66
2023/10/31 07:38:48;;;;;;;7.30;2.53;;;;;;;;;;4951640;28;93810;-66
2023/10/31 07:41:15;;;;;;;3.47;2.10;;;;;;;;;;4948061;28;94117;-67
2023/10/31 07:43:41;;;;;;;4.75;2.60;;;;;;;;;;4956175;28;93060;-70
2023/10/31 07:46:07;;;;;;;4.22;2.20;;;;;;;;;;4955635;28;92674;-70
2023/10/31 07:48:34;;;;;;;6.03;3.08;;;;;;;;;;4955722;28;92601;-68
2023/10/31 07:51:00;;;;;;;3.08;2.38;;;;;;;;;;4958325;28;93122;-68
2023/10/31 07:53:27;;;;;;;7.13;2.80;;;;;;;;;;4961871;28;96861;-68
2023/10/31 07:55:53;;;;;;;4.82;3.05;;;;;;;;;;4960334;28;95499;-69
2023/10/31 07:58:20;;;;;;;8.55;2.65;;;;;;;;;;4951888;28;93474;-69
2023/10/31 08:00:46;;;;;;;5.30;2.45;;;;;;;;;;4951805;28;92552;-65
2023/10/31 08:03:13;;;;;;;4.93;2.72;;;;;;;;;;4956262;28;93493;-69
2023/10/31 08:05:39;;;;;;;2.75;2.55;;;;;;;;;;4955429;28;94105;-68
2023/10/31 08:08:06;;;;;;;4.35;2.55;;;;;;;;;;4950665;28;94514;-68
2023/10/31 08:10:34;;;;;;;4.80;2.88;;;;;;;;;;4964431;28;93182;-69
2023/10/31 08:13:00;;;;;;;10.43;3.13;;;;;;;;;;4960776;28;93719;-69
2023/10/31 08:15:27;;;;;;;7.60;3.88;;;;;;;;;;4967999;28;95115;-69
2023/10/31 08:17:53;;;;;;;8.55;2.95;;;;;;;;;;4963792;28;95743;-67
2023/10/31 08:20:19;;;;;;;4.13;2.83;;;;;;;;;;4958207;28;92443;-69
2023/10/31 08:22:46;;;;;;;9.65;3.67;;;;;;;;;;4953757;28;94381;-69
2023/10/31 08:25:12;;;;;;;9.10;3.00;;;;;;;;;;4960084;28;93467;-69
2023/10/31 08:27:39;;;;;;;3.90;2.80;;;;;;;;;;4960072;28;92880;-68
2023/10/31 08:30:05;;;;;;;9.52;3.63;;;;;;;;;;4959551;28;94671;-68
2023/10/31 08:32:32;;;;;;;6.15;2.92;;;;;;;;;;4953364;28;94617;-64
2023/10/31 08:34:58;;;;;;;7.50;3.13;;;;;;;;;;4948256;28;93815;-67
2023/10/31 08:37:24;;;;;;;6.60;3.13;;;;;;;;;;4960772;28;92515;-66
2023/10/31 08:39:51;;;;;;;6.80;3.13;;;;;;;;;;4949952;28;95382;-68
2023/10/31 08:42:17;;;;;;;7.53;3.25;;;;;;;;;;4953119;28;94822;-69
2023/10/31 08:44:43;;;;;;;10.05;3.60;;;;;;;;;;4956239;28;94456;-69
2023/10/31 08:47:12;;;;;;;8.10;3.47;;;;;;;;;;4961074;28;92763;-69
2023/10/31 08:49:38;;;;;;;6.82;3.03;;;;;;;;;;4956389;28;94278;-69
2023/10/31 08:52:05;;;;;;;8.90;3.78;;;;;;;;;;4953651;28;93277;-69
2023/10/31 08:54:31;;;;;;;6.82;3.47;;;;;;;;;;4955663;28;93000;-69
2023/10/31 08:56:57;;;;;;;9.02;3.13;;;;;;;;;;4961426;28;93042;-70
2023/10/31 08:59:24;;;;;;;10.50;3.42;;;;;;;;;;4962829;28;94220;-70
2023/10/31 09:01:50;;;;;;;7.35;3.17;;;;;;;;;;4957984;28;92454;-69
2023/10/31 09:04:17;;;;;;;8.57;3.25;;;;;;;;;;4958488;28;93456;-70
2023/10/31 09:06:43;;;;;;;7.90;3.67;;;;;;;;;;4960494;28;94952;-70
2023/10/31 09:09:10;;;;;;;10.45;3.45;;;;;;;;;;4958794;28;95478;-68
2023/10/31 09:11:36;;;;;;;7.93;3.70;;;;;;;;;;4958691;28;93526;-69
2023/10/31 09:14:03;;;;;;;7.45;3.40;;;;;;;;;;4961753;28;92608;-69
2023/10/31 09:16:29;;;;;;;10.88;3.95;;;;;;;;;;4958838;28;94453;-69
2023/10/31 09:18:56;;;;;;;13.68;3.60;;;;;;;;;;4964545;28;93414;-69
2023/10/31 09:21:22;;;;;;;8.35;3.75;;;;;;;;;;4961416;28;93401;-69
2023/10/31 09:23:48;;;;;;;15.30;3.92;;;;;;;;;;4961345;28;91689;-69
2023/10/31 09:26:14;;;;;;;12.15;4.32;;;;;;;;;;4959140;28;92442;-69
2023/10/31 09:28:49;;;;;;;8.63;3.67;;;;;;;;;;4957083;28;94317;-67
2023/10/31 09:31:16;;;;;;;7.57;3.60;;;;;;;;;;4957820;28;96864;-69
2023/10/31 09:33:43;;;;;;;14.48;4.30;;;;;;;;;;4960160;28;92727;-69
2023/10/31 09:36:10;;;;;;;8.35;3.90;;;;;;;;;;4958720;28;93120;-68
2023/10/31 09:38:36;;;;;;;10.55;3.80;;;;;;;;;;4959802;28;94235;-68
2023/10/31 09:41:03;;;;;;;12.27;3.67;;;;;;;;;;4959288;28;92535;-68
2023/10/31 09:43:29;;;;;;;11.40;3.80;;;;;;;;;;4959972;28;93389;-68
2023/10/31 09:45:57;;;;;;;13.00;4.00;;;;;;;;;;4956298;28;92481;-68
2023/10/31 09:48:23;;;;;;;6.68;3.67;;;;;;;;;;4961055;28;94171;-68
2023/10/31 09:50:50;;;;;;;10.35;3.63;;;;;;;;;;4959642;28;93392;-67
2023/10/31 09:53:16;;;;;;;18.02;4.40;;;;;;;;;;4960189;28;92991;-68
2023/10/31 09:55:43;;;;;;;8.65;3.80;;;;;;;;;;4960803;28;95062;-68
2023/10/31 09:58:09;;;;;;;12.75;3.28;;;;;;;;;;4963867;28;93420;-68
2023/10/31 10:00:40;;;;;;;9.40;3.65;;;;;;;;;;4957771;28;94249;-68
2023/10/31 10:03:08;;;;;;;13.70;3.28;;;;;;;;;;4966166;28;95610;-68
2023/10/31 10:05:35;;;;;;;10.05;3.25;;;;;;;;;;4964561;28;93698;-68
2023/10/31 10:08:03;;;;;;;17.45;3.88;;;;;;;;;;4966171;28;93335;-68
2023/10/31 10:10:30;;;;;;;13.55;3.25;;;;;;;;;;4959412;28;94604;-68
2023/10/31 10:12:58;;;;;;;9.65;3.05;;;;;;;;;;4965710;28;91663;-68
2023/10/31 10:15:26;;;;;;;10.18;2.90;;;;;;;;;;4949834;28;94000;-69
2023/10/31 10:17:54;;;;;;;10.45;3.40;;;;;;;;;;4962099;28;93927;-68
2023/10/31 10:20:20;;;;;;;12.10;3.38;;;;;;;;;;4948151;28;94937;-68
2023/10/31 10:22:47;;;;;;;11.00;2.97;;;;;;;;;;4953922;28;96786;-68
2023/10/31 10:25:18;;;;;;;10.95;3.45;;;;;;;;;;4954469;28;94573;-68
2023/10/31 10:27:45;;;;;;;14.63;3.28;;;;;;;;;;4965523;28;94304;-68
2023/10/31 10:30:12;;;;;;;12.82;3.20;;;;;;;;;;4965046;28;94418;-68
2023/10/31 10:32:38;;;;;;;8.20;3.17;;;;;;;;;;4959028;28;92643;-68
2023/10/31 10:35:06;;;;;;;11.38;3.47;;;;;;;;;;4963607;28;93491;-68
2023/10/31 10:37:34;;;;;;;11.20;3.42;;;;;;;;;;4961451;28;92647;-67
2023/10/31 10:40:01;;;;;;;10.07;2.78;;;;;;;;;;4957581;28;93482;-68
2023/10/31 10:42:46;;;;;;;16.95;3.58;;;;;;;;;;4959842;28;93179;-67
2023/10/31 10:45:13;;;;;;;11.70;3.65;;;;;;;;;;4955394;28;95805;-68
2023/10/31 10:47:40;;;;;;;11.50;3.95;;;;;;;;;;4966611;28;92454;-68
2023/10/31 10:50:08;;;;;;;12.48;4.07;;;;;;;;;;4963090;28;94480;-68
2023/10/31 10:52:56;;;;;;;14.25;4.55;;;;;;;;;;4960610;28;92515;-69
2023/10/31 10:55:25;;;;;;;14.55;3.70;;;;;;;;;;4957324;28;93487;-67
2023/10/31 10:58:03;;;;;;;10.05;2.90;;;;;;;;;;4956313;28;94231;-68
2023/10/31 11:00:30;;;;;;;11.75;3.83;;;;;;;;;;4954853;28;92871;-68
2023/10/31 11:02:57;;;;;;;12.30;3.75;;;;;;;;;;4963938;28;93177;-68
2023/10/31 11:05:24;;;;;;;7.90;3.22;;;;;;;;;;4955867;28;93433;-68
2023/10/31 11:07:51;;;;;;;10.55;3.17;;;;;;;;;;4962293;28;92515;-68
2023/10/31 11:10:18;;;;;;;13.55;2.72;;;;;;;;;;4958057;28;95272;-68
2023/10/31 11:12:44;;;;;;;8.77;2.28;;;;;;;;;;4959958;28;92537;-67
2023/10/31 11:15:20;;;;;;;10.63;2.97;;;;;;;;;;4963328;28;93038;-68
2023/10/31 11:17:47;;;;;;;8.45;2.38;;;;;;;;;;4961212;28;94401;-68
2023/10/31 11:20:15;;;;;;;12.75;2.58;;;;;;;;;;4960959;28;92514;-69
2023/10/31 11:22:43;;;;;;;14.82;3.33;;;;;;;;;;4962035;28;93549;-68
2023/10/31 11:25:12;;;;;;;10.55;2.63;;;;;;;;;;4955226;28;93396;-69
2023/10/31 11:27:49;;;;;;;9.32;2.08;;;;;;;;;;4965413;28;91748;-68
2023/10/31 11:30:24;;;;;;;13.45;3.05;;;;;;;;;;4960800;28;93001;-68
2023/10/31 11:32:51;;;;;;;10.07;2.65;;;;;;;;;;4960789;28;92551;-64
2023/10/31 11:35:18;;;;;;;6.53;2.40;;;;;;;;;;4952598;28;96607;-64
2023/10/31 11:37:47;;;;;;;6.20;2.78;;;;;;;;;;4963965;28;93771;-64
2023/10/31 11:40:17;;;;;;;6.65;2.92;;;;;;;;;;4959899;28;92573;-64
2023/10/31 11:42:50;;;;;;;6.33;3.03;;;;;;;;;;4951556;28;93094;-64
2023/10/31 11:45:30;;;;;;;10.00;2.80;;;;;;;;;;4960617;28;93432;-64
2023/10/31 11:47:56;;;;;;;10.87;2.97;;;;;;;;;;4959277;28;93636;-64
2023/10/31 11:50:23;;;;;;;9.93;3.58;;;;;;;;;;4960133;28;94121;-64
2023/10/31 11:53:00;;;;;;;9.30;4.97;;;;;;;;;;4954218;28;92342;-65
2023/10/31 11:55:27;;;;;;;11.20;5.97;;;;;;;;;;4963057;28;93738;-66
2023/10/31 11:57:53;;;;;;;12.45;5.60;;;;;;;;;;4959985;28;93481;-65
2023/10/31 12:00:20;;;;;;;20.35;5.97;;;;;;;;;;4960247;28;94983;-64
2023/10/31 12:03:00;;;;;;;11.23;6.03;;;;;;;;;;4962606;28;95747;-64
2023/10/31 12:05:26;;;;;;;13.55;7.07;;;;;;;;;;4949662;28;93568;-64
2023/10/31 12:07:53;;;;;;;9.50;7.20;;;;;;;;;;4959764;28;92710;-65
2023/10/31 12:10:23;;;;;;;15.43;8.02;;;;;;;;;;4962371;28;93456;-65
2023/10/31 12:12:50;;;;;;;13.27;8.88;;;;;;;;;;4958263;28;94167;-65
2023/10/31 12:15:17;;;;;;;18.17;8.77;;;;;;;;;;4960440;28;92898;-64
2023/10/31 12:17:43;;;;;;;17.10;10.02;;;;;;;;;;4957575;28;92690;-64
2023/10/31 12:20:10;;;;;;;22.25;10.95;;;;;;;;;;4959082;28;92566;-64
2023/10/31 12:22:37;;;;;;;21.67;12.70;;;;;;;;;;4963602;28;93183;-64
2023/10/31 12:25:04;;;;;;;26.48;12.70;;;;;;;;;;4957907;28;96837;-64
2023/10/31 12:27:46;;;;;;;20.80;12.65;;;;;;;;;;4961416;28;92478;-63
2023/10/31 12:30:16;;;;;;;24.15;13.18;;;;;;;;;;4954003;28;93280;-64
2023/10/31 12:32:43;;;;;;;24.45;12.85;;;;;;;;;;4956420;28;93466;-64
2023/10/31 12:35:16;;;;;;;21.80;13.43;;;;;;;;;;4956339;28;92609;-63
2023/10/31 12:37:47;;;;;;;23.60;13.07;;;;;;;;;;4960220;28;93049;-64
2023/10/31 12:40:13;;;;;;;;;;;;;;;;;;4960207;28;92538;-64
2023/10/31 12:42:40;;;;;;;21.40;12.27;;;;;;;;;;4959468;28;121863;-64
2023/10/31 12:45:06;;;;;;;24.65;12.35;;;;;;;;;;4960854;28;93336;-64
2023/10/31 12:47:34;;;;;;;24.60;12.25;;;;;;;;;;4961031;28;92393;-64
2023/10/31 12:50:09;;;;;;;23.05;11.55;;;;;;;;;;4951170;28;94865;-64
2023/10/31 12:52:51;;;;;;;22.90;12.13;;;;;;;;;;4958688;28;93409;-64
2023/10/31 12:55:21;;;;;;;27.73;12.30;;;;;;;;;;4956384;28;92623;-64
2023/10/31 12:57:48;;;;;;;19.35;12.43;;;;;;;;;;4959070;28;93198;-65
2023/10/31 13:00:17;;;;;;;23.20;12.65;;;;;;;;;;4964116;28;94453;-64
2023/10/31 13:02:44;;;;;;;26.67;12.75;;;;;;;;;;4962694;28;93192;-64
2023/10/31 13:05:12;;;;;;;26.08;13.57;;;;;;;;;;4957948;28;93415;-64
2023/10/31 13:07:39;;;;;;;31.10;13.35;;;;;;;;;;4958508;28;91768;-64
2023/10/31 13:10:06;;;;;;;23.73;12.80;;;;;;;;;;4961577;28;92500;-64
2023/10/31 13:12:33;;;;;;;29.30;14.18;;;;;;;;;;4959472;28;94418;-64
2023/10/31 13:15:01;;;;;;;22.55;13.75;;;;;;;;;;4955503;28;95265;-65
2023/10/31 13:17:28;;;;;;;24.33;12.80;;;;;;;;;;4960175;28;95583;-64
2023/10/31 13:19:54;;;;;;;21.08;12.98;;;;;;;;;;4960352;28;93382;-66
2023/10/31 13:22:20;;;;;;;26.65;13.13;;;;;;;;;;4970730;28;92512;-65
2023/10/31 13:24:47;;;;;;;41.08;13.57;;;;;;;;;;4961808;28;93455;-64
2023/10/31 13:27:16;;;;;;;24.80;12.63;;;;;;;;;;4961045;28;93537;-65
2023/10/31 13:29:43;;;;;;;19.60;12.32;;;;;;;;;;4956621;28;94149;-65
2023/10/31 13:32:09;;;;;;;21.40;12.38;;;;;;;;;;4959500;28;93863;-65
2023/10/31 13:34:36;;;;;;;21.23;11.80;;;;;;;;;;4956586;28;92594;-65
2023/10/31 13:37:02;;;;;;;21.48;11.77;;;;;;;;;;4956954;28;94532;-64
2023/10/31 13:39:29;;;;;;;21.90;11.77;;;;;;;;;;4959813;28;95794;-65
2023/10/31 13:41:55;;;;;;;15.60;10.45;;;;;;;;;;4966085;28;92522;-65
2023/10/31 13:44:21;;;;;;;18.85;10.55;;;;;;;;;;4962298;28;94199;-64
2023/10/31 13:46:48;;;;;;;20.10;9.88;;;;;;;;;;4961812;28;92415;-65
2023/10/31 13:49:14;;;;;;;18.48;9.43;;;;;;;;;;4960054;28;93092;-65
2023/10/31 13:51:41;;;;;;;17.25;9.75;;;;;;;;;;4960882;28;94051;-65
2023/10/31 13:54:07;;;;;;;12.32;8.70;;;;;;;;;;4962037;28;93109;-65
2023/10/31 13:56:33;;;;;;;17.60;9.23;;;;;;;;;;4965334;28;93266;-65
2023/10/31 13:59:01;;;;;;;19.42;10.23;;;;;;;;;;4962103;28;94504;-66
2023/10/31 14:01:28;;;;;;;18.25;10.15;;;;;;;;;;4966499;28;92572;-65
2023/10/31 14:03:55;;;;;;;22.20;10.07;;;;;;;;;;4960276;28;95734;-65
2023/10/31 14:06:22;;;;;;;13.35;10.23;;;;;;;;;;4957384;28;93656;-65
2023/10/31 14:08:48;;;;;;;19.23;10.38;;;;;;;;;;4958753;28;94248;-66
2023/10/31 14:11:15;;;;;;;21.92;11.30;;;;;;;;;;4959811;28;93743;-65
2023/10/31 14:13:44;;;;;;;18.58;12.10;;;;;;;;;;4964055;28;92474;-65
2023/10/31 14:16:11;;;;;;;19.77;11.07;;;;;;;;;;4954490;28;94333;-65
2023/10/31 14:18:38;;;;;;;21.27;12.48;;;;;;;;;;4951454;28;93476;-65
2023/10/31 14:21:05;;;;;;;21.02;12.02;;;;;;;;;;4962256;28;91760;-65
2023/10/31 14:23:31;;;;;;;21.58;14.00;;;;;;;;;;4959402;28;92496;-65
2023/10/31 14:25:58;;;;;;;23.25;15.02;;;;;;;;;;4963570;28;93483;-64
2023/10/31 14:28:24;;;;;;;22.20;15.73;;;;;;;;;;4961042;28;95022;-65
2023/10/31 14:30:52;;;;;;;22.63;14.43;;;;;;;;;;4955006;28;94427;-65
2023/10/31 14:33:18;;;;;;;26.65;16.35;;;;;;;;;;4960050;28;92423;-65